Time;durP1;ratioP1;P1;durP2;ratioP2;P2;SDS_P1;SDS_P2;PMS_P1;PMS_P2;Temp;Humidity;BMP_temperature;BMP_pressure;BME280_temperature;BME280_humidity;BME280_pressure;Samples;Min_cycle;Max_cycle;Signal;HPM_P1;HPM_P2
2021/05/11 00:01:21;;;;;;;7.80;5.57;;;16.60;99.90;;;;;;5029860;28;20428;-45
2021/05/11 00:03:47;;;;;;;5.13;4.05;;;16.50;99.90;;;;;;5030115;28;20041;-44
2021/05/11 00:06:13;;;;;;;6.68;4.47;;;16.50;99.90;;;;;;5030156;28;20075;-45
2021/05/11 00:08:38;;;;;;;6.47;4.93;;;16.50;99.90;;;;;;5029452;28;20021;-47
2021/05/11 00:11:04;;;;;;;8.20;5.03;;;16.50;99.90;;;;;;5029403;28;20080;-45
2021/05/11 00:13:30;;;;;;;6.38;4.20;;;16.50;99.90;;;;;;5029727;28;20034;-45
2021/05/11 00:15:55;;;;;;;5.55;4.32;;;16.50;99.90;;;;;;5028742;28;20029;-50
2021/05/11 00:18:21;;;;;;;5.20;4.00;;;16.50;99.90;;;;;;5028995;28;20044;-45
2021/05/11 00:20:47;;;;;;;6.47;4.53;;;16.40;99.90;;;;;;5029938;28;20104;-46
2021/05/11 00:23:12;;;;;;;9.68;4.00;;;16.40;99.90;;;;;;5029786;28;20034;-45
2021/05/11 00:25:38;;;;;;;6.78;4.47;;;16.40;99.90;;;;;;5029765;28;20033;-44
2021/05/11 00:28:04;;;;;;;4.90;4.03;;;16.40;99.90;;;;;;5028775;28;20034;-45
2021/05/11 00:30:29;;;;;;;6.00;4.10;;;16.40;99.90;;;;;;5027962;28;20057;-46
2021/05/11 00:32:55;;;;;;;12.55;4.95;;;16.40;99.90;;;;;;5029392;28;20047;-44
2021/05/11 00:35:20;;;;;;;6.13;4.20;;;16.30;99.90;;;;;;5029355;28;20034;-44
2021/05/11 00:37:46;;;;;;;7.70;4.03;;;16.30;99.90;;;;;;5028889;28;20029;-44
2021/05/11 00:40:12;;;;;;;7.53;4.10;;;16.30;99.90;;;;;;5029356;28;20036;-45
2021/05/11 00:42:38;;;;;;;6.07;4.15;;;16.30;99.90;;;;;;5028080;28;20033;-47
2021/05/11 00:45:05;;;;;;;8.05;4.93;;;16.30;99.90;;;;;;5028117;28;20475;-45
2021/05/11 00:47:31;;;;;;;6.43;4.28;;;16.30;99.90;;;;;;5025983;28;20083;-46
2021/05/11 00:49:57;;;;;;;11.00;4.90;;;16.30;99.90;;;;;;5029208;28;20033;-44
2021/05/11 00:52:22;;;;;;;6.43;5.03;;;16.30;99.90;;;;;;5029129;28;20102;-46
2021/05/11 00:54:48;;;;;;;7.88;4.68;;;16.30;99.90;;;;;;5028948;28;20031;-45
2021/05/11 00:57:14;;;;;;;7.90;5.03;;;16.20;99.90;;;;;;5027651;28;20022;-44
2021/05/11 00:59:40;;;;;;;6.07;4.38;;;16.20;99.90;;;;;;5028060;28;20072;-45
2021/05/11 01:02:08;;;;;;;7.03;4.80;;;16.20;99.90;;;;;;5028740;28;20022;-44
2021/05/11 01:04:34;;;;;;;8.00;4.70;;;16.20;99.90;;;;;;5029371;28;20064;-45
2021/05/11 01:07:00;;;;;;;6.75;4.57;;;16.10;99.90;;;;;;5029190;28;20498;-45
2021/05/11 01:09:26;;;;;;;7.40;4.70;;;16.20;99.90;;;;;;5027920;28;20056;-45
2021/05/11 01:11:52;;;;;;;7.22;5.18;;;16.10;99.90;;;;;;5028604;28;20568;-44
2021/05/11 01:14:19;;;;;;;6.10;4.05;;;16.10;99.90;;;;;;5028697;28;20061;-44
2021/05/11 01:16:48;;;;;;;8.65;4.57;;;16.10;99.90;;;;;;5028473;28;20029;-44
2021/05/11 01:19:19;;;;;;;7.60;4.82;;;16.10;99.90;;;;;;5026798;28;20144;-45
2021/05/11 01:21:53;;;;;;;11.15;4.50;;;16.10;99.90;;;;;;5007618;28;20475;-45
2021/05/11 01:26:58;;;;;;;5.75;4.68;;;16.10;99.90;;;;;;5008577;28;20024;-45
2021/05/11 01:46:02;;;;;;;7.70;4.75;;;15.90;99.90;;;;;;5028435;28;20057;-45
2021/05/11 01:56:35;;;;;;;6.30;4.10;;;15.70;99.90;;;;;;5027986;28;20059;-44
2021/05/11 02:10:32;;;;;;;9.70;3.45;;;15.50;99.90;;;;;;5027835;28;20036;-46
2021/05/11 02:23:38;;;;;;;6.00;3.63;;;15.40;99.90;;;;;;5027171;28;20028;-43
2021/05/11 02:26:04;;;;;;;5.75;3.13;;;15.30;99.90;;;;;;5028042;28;20025;-44
2021/05/11 02:28:30;;;;;;;3.40;3.10;;;15.30;99.90;;;;;;5027313;28;20044;-44
2021/05/11 02:30:56;;;;;;;4.72;3.58;;;15.20;99.90;;;;;;5027308;28;20034;-43
2021/05/11 02:33:22;;;;;;;3.85;2.95;;;15.20;99.90;;;;;;5026803;28;20021;-43
2021/05/11 02:35:47;;;;;;;4.15;3.13;;;15.10;99.90;;;;;;5027133;28;20040;-43
2021/05/11 02:38:13;;;;;;;5.45;3.33;;;15.00;99.90;;;;;;5027115;28;20033;-44
2021/05/11 02:40:40;;;;;;;4.22;2.95;;;15.00;99.90;;;;;;5027024;28;20471;-44
2021/05/11 02:43:10;;;;;;;3.67;3.30;;;15.00;99.90;;;;;;5026990;28;20029;-45
2021/05/11 02:45:36;;;;;;;5.90;3.60;;;15.00;99.90;;;;;;5027283;28;20021;-44
2021/05/11 02:48:02;;;;;;;4.53;3.13;;;14.90;99.90;;;;;;5025304;28;20029;-44
2021/05/11 02:50:31;;;;;;;4.53;3.45;;;14.90;99.90;;;;;;5026859;28;20048;-44
2021/05/11 02:52:57;;;;;;;4.75;3.75;;;14.80;99.90;;;;;;5026798;28;20045;-45
2021/05/11 02:55:23;;;;;;;4.68;4.00;;;14.90;99.90;;;;;;5027154;28;20081;-44
2021/05/11 02:57:49;;;;;;;7.90;3.67;;;14.90;99.90;;;;;;5026600;28;20125;-44
2021/05/11 03:00:17;;;;;;;7.60;3.75;;;14.80;99.90;;;;;;5027114;28;20053;-44
2021/05/11 03:02:42;;;;;;;6.13;4.20;;;14.80;99.90;;;;;;5026783;28;20030;-44
2021/05/11 03:05:09;;;;;;;7.13;4.47;;;14.80;99.90;;;;;;5027143;28;20039;-44
2021/05/11 03:07:35;;;;;;;9.52;4.80;;;14.80;99.90;;;;;;5026285;28;20498;-45
2021/05/11 03:10:01;;;;;;;8.35;4.65;;;14.70;99.90;;;;;;5027174;28;20026;-44
2021/05/11 03:12:27;;;;;;;5.80;4.18;;;14.80;99.90;;;;;;5027202;28;20021;-44
2021/05/11 03:14:52;;;;;;;5.80;4.10;;;14.80;99.90;;;;;;5025848;28;20104;-43
2021/05/11 03:17:18;;;;;;;7.13;4.15;;;14.80;99.90;;;;;;5027222;28;20478;-44
2021/05/11 03:19:44;;;;;;;6.78;3.70;;;14.80;99.90;;;;;;5030092;28;20037;-45
2021/05/11 03:22:10;;;;;;;6.22;3.85;;;14.70;99.90;;;;;;5030780;28;20025;-44
2021/05/11 03:24:38;;;;;;;6.68;4.30;;;14.70;99.90;;;;;;5031085;28;20533;-44
2021/05/11 03:27:04;;;;;;;8.30;5.32;;;14.70;99.90;;;;;;5029381;28;20498;-45
2021/05/11 03:29:29;;;;;;;7.43;4.43;;;14.70;99.90;;;;;;5030033;28;20033;-46
2021/05/11 03:31:55;;;;;;;7.63;4.75;;;14.60;99.90;;;;;;5030449;28;20037;-45
2021/05/11 03:34:21;;;;;;;8.25;4.32;;;14.70;99.90;;;;;;5030272;28;20037;-44
2021/05/11 03:36:46;;;;;;;5.45;4.35;;;14.60;99.90;;;;;;5030191;28;20267;-44
2021/05/11 03:39:12;;;;;;;7.05;4.55;;;14.70;99.90;;;;;;5029035;28;20021;-44
2021/05/11 03:41:51;;;;;;;5.72;3.65;;;14.60;99.90;;;;;;5029924;28;20052;-44
2021/05/11 03:44:18;;;;;;;6.03;4.70;;;14.60;99.90;;;;;;5026353;28;20437;-44
2021/05/11 03:46:44;;;;;;;9.73;4.57;;;14.60;99.90;;;;;;5030121;28;20021;-44
2021/05/11 03:49:10;;;;;;;5.72;4.68;;;14.60;99.90;;;;;;5025560;28;20403;-44
2021/05/11 03:51:36;;;;;;;6.82;4.88;;;14.50;99.90;;;;;;5030327;28;20497;-44
2021/05/11 03:54:02;;;;;;;6.32;5.72;;;14.50;99.90;;;;;;5030126;28;20018;-44
2021/05/11 03:56:29;;;;;;;7.32;5.32;;;14.50;99.90;;;;;;5028721;28;20415;-44
2021/05/11 03:58:54;;;;;;;6.57;5.22;;;14.50;99.90;;;;;;5029275;28;20342;-44
2021/05/11 04:01:20;;;;;;;7.55;5.55;;;14.50;99.90;;;;;;5028537;28;20538;-44
2021/05/11 04:03:46;;;;;;;6.55;5.53;;;14.50;99.90;;;;;;5029572;28;20025;-44
2021/05/11 04:06:11;;;;;;;9.18;5.60;;;14.50;99.90;;;;;;5029715;28;20053;-44
2021/05/11 04:08:50;;;;;;;8.65;5.10;;;14.50;99.90;;;;;;5029580;28;20395;-44
2021/05/11 04:11:49;;;;;;;4.88;4.22;;;14.50;99.90;;;;;;5026965;28;20043;-44
2021/05/11 04:16:57;;;;;;;7.35;4.32;;;14.50;99.90;;;;;;5027194;28;20337;-45
2021/05/11 04:19:23;;;;;;;5.68;3.67;;;14.50;99.90;;;;;;5027439;28;20279;-45
2021/05/11 04:21:48;;;;;;;5.72;4.15;;;14.50;99.90;;;;;;5029426;28;20032;-45
2021/05/11 04:24:14;;;;;;;6.22;4.32;;;14.50;99.90;;;;;;5029097;28;20075;-46
2021/05/11 04:26:39;;;;;;;6.25;4.10;;;14.50;99.90;;;;;;5029237;28;20094;-45
2021/05/11 04:29:05;;;;;;;4.05;3.63;;;14.50;99.90;;;;;;5027916;28;20051;-44
2021/05/11 04:31:33;;;;;;;6.10;3.65;;;14.50;99.90;;;;;;5028535;28;20041;-43
2021/05/11 04:33:59;;;;;;;5.47;4.10;;;14.50;99.90;;;;;;5028610;28;20025;-44
2021/05/11 04:36:24;;;;;;;5.40;4.05;;;14.50;99.90;;;;;;5027460;28;20021;-43
2021/05/11 04:38:50;;;;;;;5.75;3.90;;;14.50;99.90;;;;;;5028356;28;20022;-45
2021/05/11 04:41:16;;;;;;;4.90;3.22;;;14.50;99.90;;;;;;5029177;28;20036;-44
2021/05/11 04:43:42;;;;;;;6.57;3.78;;;14.50;99.90;;;;;;5028987;28;20298;-44
2021/05/11 04:48:45;;;;;;;9.52;3.60;;;14.50;99.90;;;;;;5027373;28;20049;-44
2021/05/11 04:51:12;;;;;;;7.80;4.50;;;14.50;99.90;;;;;;5027960;28;20163;-45
2021/05/11 04:53:38;;;;;;;7.93;4.35;;;14.50;99.90;;;;;;5028946;28;20029;-45
2021/05/11 04:56:03;;;;;;;5.60;3.88;;;14.50;99.90;;;;;;5029517;28;20030;-45
2021/05/11 04:58:29;;;;;;;5.03;3.63;;;14.50;99.90;;;;;;5028446;28;20125;-44
2021/05/11 05:01:01;;;;;;;9.05;5.03;;;14.60;99.90;;;;;;5028801;28;20400;-45
2021/05/11 05:03:28;;;;;;;5.70;3.83;;;14.60;99.90;;;;;;5028209;28;20026;-45
2021/05/11 05:05:54;;;;;;;6.60;3.97;;;14.60;99.90;;;;;;5028894;28;20041;-45
2021/05/11 05:08:20;;;;;;;5.95;4.20;;;14.70;99.90;;;;;;5026638;28;20025;-45
2021/05/11 05:10:45;;;;;;;5.75;4.22;;;14.80;99.90;;;;;;5029052;28;20037;-45
2021/05/11 05:13:20;;;;;;;4.50;3.80;;;14.80;99.90;;;;;;5029054;28;20132;-44
2021/05/11 05:15:52;;;;;;;6.30;4.18;;;14.80;99.90;;;;;;5028638;28;20078;-45
2021/05/11 05:18:18;;;;;;;8.52;4.88;;;14.80;99.90;;;;;;5018800;28;20045;-46
2021/05/11 05:20:45;;;;;;;6.00;3.92;;;14.80;99.90;;;;;;5027424;28;20049;-44
2021/05/11 05:23:11;;;;;;;6.93;4.18;;;14.80;99.90;;;;;;5029438;28;20018;-44
2021/05/11 05:25:36;;;;;;;6.72;4.00;;;14.70;99.90;;;;;;5029926;28;20056;-44
2021/05/11 05:28:07;;;;;;;5.40;4.53;;;14.70;99.90;;;;;;5039065;28;20025;-45
2021/05/11 05:30:33;;;;;;;;;;;14.70;99.90;;;;;;5031534;28;20029;-45
2021/05/11 05:33:02;;;;;;;11.50;3.88;;;14.70;99.90;;;;;;5042384;28;19919;-45
2021/05/11 05:35:30;;;;;;;11.23;4.25;;;14.70;99.90;;;;;;5035414;28;20271;-44
2021/05/11 05:37:55;;;;;;;8.73;3.72;;;14.70;99.90;;;;;;5031791;28;20060;-44
2021/05/11 05:40:22;;;;;;;4.93;4.15;;;14.70;99.90;;;;;;5030851;28;20099;-45
2021/05/11 05:42:47;;;;;;;6.60;3.65;;;14.70;99.90;;;;;;5035583;28;20025;-44
2021/05/11 05:45:14;;;;;;;7.85;3.90;;;14.70;99.90;;;;;;5035476;28;20033;-45
2021/05/11 05:47:50;;;;;;;7.28;3.67;;;14.70;99.90;;;;;;5038313;28;20022;-44
2021/05/11 05:50:27;;;;;;;5.45;3.40;;;14.70;99.90;;;;;;5015802;28;20017;-44
2021/05/11 05:53:00;;;;;;;3.95;3.35;;;14.70;99.90;;;;;;5037380;28;20386;-45
2021/05/11 05:55:26;;;;;;;9.02;4.10;;;14.70;99.90;;;;;;5032154;28;20108;-44
2021/05/11 05:57:51;;;;;;;5.32;3.30;;;14.70;99.90;;;;;;5042450;28;20441;-45
2021/05/11 06:00:17;;;;;;;5.43;4.05;;;14.70;99.90;;;;;;5028322;28;20022;-43
2021/05/11 06:02:48;;;;;;;4.13;3.60;;;14.70;99.90;;;;;;5028128;28;20074;-45
2021/05/11 06:05:15;;;;;;;6.25;3.88;;;14.70;99.90;;;;;;5045368;28;20021;-44
2021/05/11 06:07:41;;;;;;;5.43;3.80;;;14.70;99.90;;;;;;5046681;28;20021;-45
2021/05/11 06:10:08;;;;;;;6.00;3.47;;;14.70;99.90;;;;;;5047531;28;20120;-43
2021/05/11 06:12:52;;;;;;;10.32;4.07;;;14.70;99.90;;;;;;5037773;28;20291;-44
2021/05/11 06:18:02;;;;;;;5.05;3.95;;;14.90;99.90;;;;;;5026564;28;20082;-45
2021/05/11 06:20:28;;;;;;;4.53;3.80;;;14.90;99.90;;;;;;5027741;28;20593;-44
2021/05/11 06:22:53;;;;;;;9.13;4.30;;;15.00;99.90;;;;;;5038525;28;20147;-45
2021/05/11 06:25:19;;;;;;;6.55;3.28;;;15.10;99.90;;;;;;5046660;28;20036;-43
2021/05/11 06:27:45;;;;;;;4.88;3.47;;;15.20;99.90;;;;;;5046144;28;20028;-47
2021/05/11 06:30:11;;;;;;;8.30;4.10;;;15.30;99.90;;;;;;5046548;28;20390;-44
2021/05/11 06:32:37;;;;;;;7.60;4.63;;;15.30;99.90;;;;;;5045747;28;20029;-45
2021/05/11 06:35:05;;;;;;;5.13;3.92;;;15.40;99.90;;;;;;5044829;28;20021;-44
2021/05/11 06:37:31;;;;;;;8.75;3.85;;;15.40;99.90;;;;;;5026972;28;20018;-44
2021/05/11 06:39:58;;;;;;;5.85;4.38;;;15.50;99.90;;;;;;5026629;28;20025;-44
2021/05/11 06:42:25;;;;;;;7.18;4.10;;;15.50;99.90;;;;;;5027230;28;20025;-44
2021/05/11 06:45:07;;;;;;;7.90;4.25;;;15.50;99.90;;;;;;5035522;28;20021;-44
2021/05/11 06:55:15;;;;;;;7.85;3.85;;;15.60;99.90;;;;;;5030883;28;20267;-44
2021/05/11 06:57:40;;;;;;;7.78;3.70;;;15.70;99.90;;;;;;5030427;28;20094;-44
2021/05/11 07:00:07;;;;;;;8.45;3.30;;;15.70;99.90;;;;;;5031096;28;20041;-44
2021/05/11 07:02:32;;;;;;;5.68;3.47;;;15.70;99.90;;;;;;5030215;28;20025;-45
2021/05/11 07:04:57;;;;;;;5.03;3.55;;;15.80;99.90;;;;;;5013461;28;20041;-45
2021/05/11 07:07:23;;;;;;;6.20;3.42;;;15.80;99.90;;;;;;5025256;28;20451;-44
2021/05/11 07:10:04;;;;;;;5.25;3.67;;;15.90;99.90;;;;;;5010354;28;20030;-45
2021/05/11 07:15:13;;;;;;;4.20;2.70;;;15.90;99.90;;;;;;5018841;28;20760;-45
2021/05/11 07:17:39;;;;;;;3.80;2.80;;;15.80;99.90;;;;;;5030555;28;20030;-43
2021/05/11 07:20:06;;;;;;;8.70;4.63;;;15.80;99.90;;;;;;5031173;28;20601;-44
2021/05/11 07:22:32;;;;;;;24.60;17.20;;;15.90;99.90;;;;;;5030702;28;20419;-44
2021/05/11 07:24:59;;;;;;;6.80;3.78;;;15.80;99.90;;;;;;5030477;28;20028;-44
2021/05/11 07:29:56;;;;;;;5.40;3.53;;;15.70;99.90;;;;;;5030050;28;20025;-45
2021/05/11 07:32:23;;;;;;;3.50;3.05;;;15.70;99.90;;;;;;5030022;28;20506;-45
2021/05/11 07:34:54;;;;;;;3.42;2.75;;;15.60;99.90;;;;;;5029791;28;20399;-44
2021/05/11 07:37:20;;;;;;;5.47;3.20;;;15.60;99.90;;;;;;5029207;28;20399;-44
2021/05/11 07:39:46;;;;;;;3.35;2.78;;;15.50;99.90;;;;;;5028652;28;20021;-45
2021/05/11 07:42:12;;;;;;;5.88;3.65;;;15.50;99.90;;;;;;5029158;28;20518;-44
2021/05/11 07:44:42;;;;;;;4.05;3.30;;;15.40;99.90;;;;;;5029680;28;20041;-45
2021/05/11 07:50:09;;;;;;;5.85;3.42;;;15.40;99.90;;;;;;5027904;28;20467;-44
2021/05/11 08:14:44;;;;;;;10.55;3.25;;;16.10;99.90;;;;;;5009549;28;20132;-45
2021/05/11 08:17:10;;;;;;;8.85;3.55;;;16.10;99.90;;;;;;5009601;28;20049;-45
2021/05/11 08:27:56;;;;;;;4.65;3.20;;;16.20;99.90;;;;;;5029720;28;20127;-46
2021/05/11 08:30:22;;;;;;;5.47;3.38;;;16.10;99.90;;;;;;5029661;28;20445;-46
2021/05/11 08:32:48;;;;;;;5.88;3.72;;;16.00;99.90;;;;;;5029240;28;20036;-47
2021/05/11 08:35:14;;;;;;;8.50;3.35;;;16.00;99.90;;;;;;5029410;28;20025;-46
2021/05/11 08:37:39;;;;;;;6.15;3.38;;;16.00;99.90;;;;;;5028846;28;20035;-46
2021/05/11 08:40:05;;;;;;;5.10;3.55;;;16.00;99.90;;;;;;5029286;28;20566;-48
2021/05/11 08:42:32;;;;;;;5.18;3.40;;;16.00;99.90;;;;;;5045922;28;20036;-45
2021/05/11 08:45:08;;;;;;;6.38;4.20;;;15.90;99.90;;;;;;5049174;28;20021;-45
2021/05/11 08:47:48;;;;;;;7.32;3.38;;;15.90;99.90;;;;;;5046450;28;20437;-45
2021/05/11 08:50:16;;;;;;;8.07;3.27;;;15.90;99.90;;;;;;5029276;28;20022;-45
2021/05/11 08:53:01;;;;;;;5.30;3.05;;;15.80;99.90;;;;;;5029026;28;20565;-45
2021/05/11 08:59:56;;;;;;;10.15;3.08;;;15.70;99.90;;;;;;5029349;28;20021;-44
2021/05/11 09:07:13;;;;;;;8.10;4.95;;;16.10;99.90;;;;;;5029076;28;20501;-44
2021/05/11 09:09:49;;;;;;;8.05;3.72;;;16.50;99.90;;;;;;5028040;28;20025;-45
2021/05/11 09:23:33;;;;;;;11.02;6.57;;;17.90;99.90;;;;;;5009136;28;20160;-45
2021/05/11 09:23:39;;;;;;;6.38;3.63;;;18.00;99.90;;;;;;5009048;28;20025;-45
2021/05/11 09:26:12;;;;;;;3.88;2.40;;;18.30;99.90;;;;;;5008777;28;20041;-45
2021/05/11 09:28:48;;;;;;;5.00;3.10;;;18.60;99.90;;;;;;5007883;28;20018;-44
2021/05/11 09:34:21;;;;;;;7.45;2.80;;;19.80;99.90;;;;;;5022483;28;20042;-45
2021/05/11 09:58:56;;;;;;;5.10;2.60;;;19.60;99.90;;;;;;5028903;28;20037;-45
2021/05/11 10:10:28;;;;;;;5.28;2.90;;;19.80;99.90;;;;;;5029375;28;20403;-44
2021/05/11 10:37:03;;;;;;;8.18;3.72;;;20.30;99.90;;;;;;5029137;28;20034;-47
2021/05/11 10:42:19;;;;;;;6.40;3.47;;;20.50;99.90;;;;;;5029009;28;20493;-45
2021/05/11 10:46:27;;;;;;;3.88;2.83;;;20.90;99.00;;;;;;5028979;28;20040;-44
2021/05/11 10:48:21;;;;;;;4.72;3.28;;;20.80;99.50;;;;;;5027166;28;20030;-46
2021/05/11 10:50:55;;;;;;;6.13;2.60;;;20.80;99.00;;;;;;5028767;28;20017;-45
2021/05/11 10:53:45;;;;;;;5.80;3.35;;;20.80;99.90;;;;;;5028759;28;20037;-51
2021/05/11 10:56:33;;;;;;;7.80;3.22;;;21.10;99.60;;;;;;5027119;28;20053;-45
2021/05/11 10:59:10;;;;;;;6.55;3.63;;;20.80;99.10;;;;;;5023080;28;20018;-44
2021/05/11 11:01:37;;;;;;;5.53;3.47;;;20.60;99.90;;;;;;5026411;28;20131;-45
2021/05/11 11:04:23;;;;;;;6.75;3.40;;;20.50;99.90;;;;;;5025191;28;20040;-46
2021/05/11 11:07:01;;;;;;;4.93;3.33;;;20.30;99.90;;;;;;5027503;28;20067;-46
2021/05/11 11:09:34;;;;;;;5.32;3.38;;;20.20;99.90;;;;;;5026344;28;20093;-44
2021/05/11 11:12:01;;;;;;;5.50;3.45;;;20.30;99.90;;;;;;5027224;28;20196;-45
2021/05/11 11:14:43;;;;;;;5.88;3.67;;;20.30;99.90;;;;;;5026364;28;20116;-45
2021/05/11 11:17:11;;;;;;;6.85;3.67;;;20.30;99.90;;;;;;5027903;28;20462;-45
2021/05/11 11:19:37;;;;;;;4.20;3.42;;;20.30;99.90;;;;;;5025181;28;20017;-45
2021/05/11 11:24:56;;;;;;;10.00;4.88;;;20.10;99.90;;;;;;5026210;28;20032;-45
2021/05/11 11:27:30;;;;;;;5.90;3.30;;;19.80;99.90;;;;;;5025975;28;20026;-46
2021/05/11 11:30:04;;;;;;;5.50;3.38;;;19.80;99.90;;;;;;5026046;28;20020;-45
2021/05/11 11:32:30;;;;;;;5.43;3.45;;;19.60;99.90;;;;;;5025168;28;20026;-45
2021/05/11 11:34:59;;;;;;;5.65;3.33;;;19.60;99.90;;;;;;5027032;28;20022;-45
2021/05/11 11:37:27;;;;;;;5.93;3.50;;;19.70;99.90;;;;;;5026324;28;20040;-45
2021/05/11 11:39:54;;;;;;;5.13;3.42;;;19.60;99.90;;;;;;5028198;28;20599;-45
2021/05/11 11:42:22;;;;;;;5.93;3.45;;;19.40;99.90;;;;;;5031034;28;20399;-51
2021/05/11 11:44:51;;;;;;;6.35;3.67;;;19.50;99.90;;;;;;5030866;28;20093;-49
2021/05/11 11:47:17;;;;;;;5.63;3.05;;;19.50;99.90;;;;;;5030558;28;20467;-45
2021/05/11 11:49:46;;;;;;;4.40;3.20;;;19.60;99.90;;;;;;5024609;28;20033;-45
2021/05/11 12:00:16;;;;;;;8.40;3.75;;;19.60;99.90;;;;;;5028009;28;20092;-44
2021/05/11 12:03:03;;;;;;;7.63;4.13;;;19.70;99.90;;;;;;5026809;28;20123;-45
2021/05/11 12:05:29;;;;;;;7.03;3.35;;;19.40;99.90;;;;;;5027200;28;20041;-45
2021/05/11 12:11:06;;;;;;;6.28;3.53;;;19.20;99.90;;;;;;5026857;28;20703;-44
2021/05/11 12:13:40;;;;;;;7.65;4.38;;;19.30;99.90;;;;;;5025969;28;20117;-45
2021/05/11 12:16:21;;;;;;;9.52;5.63;;;19.30;99.90;;;;;;5027936;28;20206;-45
2021/05/11 12:19:17;;;;;;;7.57;3.53;;;19.20;99.90;;;;;;5027384;28;20260;-45
2021/05/11 12:22:06;;;;;;;6.55;3.72;;;19.10;99.90;;;;;;5029320;28;20028;-45
2021/05/11 12:24:41;;;;;;;6.10;3.72;;;19.00;99.90;;;;;;5029474;28;20180;-44
2021/05/11 12:27:22;;;;;;;5.45;4.28;;;18.80;99.90;;;;;;5029807;28;20421;-45
2021/05/11 12:30:06;;;;;;;7.18;3.47;;;18.90;99.90;;;;;;5029741;28;20018;-44
2021/05/11 12:32:35;;;;;;;4.97;3.05;;;18.90;99.90;;;;;;5029325;28;20273;-44
2021/05/11 12:35:09;;;;;;;6.25;4.20;;;18.90;99.90;;;;;;5029461;28;20113;-44
2021/05/11 12:37:49;;;;;;;6.40;3.13;;;18.80;99.90;;;;;;5029021;28;20021;-45
2021/05/11 12:40:32;;;;;;;6.45;4.07;;;18.90;99.90;;;;;;5028468;28;20025;-46
2021/05/11 12:43:01;;;;;;;8.43;3.78;;;19.00;99.90;;;;;;5029148;28;20052;-45
2021/05/11 12:45:29;;;;;;;5.22;3.72;;;19.00;99.90;;;;;;5029260;28;20045;-45
2021/05/11 12:48:03;;;;;;;7.10;3.35;;;18.90;99.90;;;;;;5027038;28;20025;-45
2021/05/11 12:50:32;;;;;;;4.32;3.17;;;18.90;99.90;;;;;;5029389;28;20384;-46
2021/05/11 12:53:05;;;;;;;10.50;4.75;;;18.80;99.90;;;;;;5027234;28;20029;-45
2021/05/11 12:55:54;;;;;;;9.00;3.83;;;18.60;99.90;;;;;;5025458;28;20418;-45
2021/05/11 12:58:38;;;;;;;7.07;3.33;;;18.50;99.90;;;;;;5023993;28;20017;-45
2021/05/11 13:19:51;;;;;;;12.80;5.47;;;18.10;99.90;;;;;;5027776;28;20032;-45
2021/05/11 13:25:58;;;;;;;5.60;3.63;;;18.00;99.90;;;;;;5028006;28;20070;-44
2021/05/11 13:28:40;;;;;;;7.85;3.92;;;18.00;99.90;;;;;;5028314;28;20021;-45
2021/05/11 13:34:09;;;;;;;5.97;3.47;;;17.80;99.90;;;;;;5027506;28;20068;-47
2021/05/11 13:36:36;;;;;;;7.57;3.55;;;17.90;99.90;;;;;;5028149;28;20021;-44
2021/05/11 13:39:04;;;;;;;8.40;3.08;;;17.90;99.90;;;;;;5027422;28;20786;-47
2021/05/11 13:41:30;;;;;;;5.65;3.20;;;18.00;99.90;;;;;;5028164;28;20068;-45
2021/05/11 13:43:55;;;;;;;7.13;3.40;;;18.10;99.90;;;;;;5028017;28;20041;-46
2021/05/11 13:46:21;;;;;;;9.07;4.28;;;18.10;99.90;;;;;;5027890;28;20025;-48
2021/05/11 13:48:48;;;;;;;6.95;3.60;;;18.20;99.90;;;;;;5026531;28;20025;-45
2021/05/11 13:51:20;;;;;;;9.55;3.85;;;18.20;99.90;;;;;;5027882;28;20021;-45
2021/05/11 13:53:54;;;;;;;5.63;3.88;;;18.20;99.90;;;;;;5027339;28;21095;-45
2021/05/11 14:04:01;;;;;;;7.60;3.40;;;18.10;99.90;;;;;;5028822;28;20026;-45
2021/05/11 14:06:26;;;;;;;6.00;3.72;;;18.00;99.90;;;;;;5029901;28;20018;-45
2021/05/11 14:08:52;;;;;;;8.77;3.45;;;17.90;99.90;;;;;;5029977;28;20079;-44
2021/05/11 14:11:17;;;;;;;10.88;4.22;;;17.90;99.90;;;;;;5029339;28;20072;-45
2021/05/11 14:13:43;;;;;;;4.25;3.33;;;17.90;99.90;;;;;;5027452;28;20251;-46
2021/05/11 14:16:08;;;;;;;5.03;3.25;;;17.80;99.90;;;;;;5027667;28;20611;-47
2021/05/11 14:18:35;;;;;;;8.95;3.53;;;17.70;99.90;;;;;;5024431;28;20033;-45
2021/05/11 14:21:00;;;;;;;6.20;3.15;;;17.80;99.90;;;;;;5026085;28;20113;-46
2021/05/11 14:23:27;;;;;;;7.20;3.45;;;17.70;99.90;;;;;;5026428;28;20546;-46
2021/05/11 14:25:53;;;;;;;5.97;3.70;;;17.70;99.90;;;;;;5026526;28;20026;-45
2021/05/11 14:28:19;;;;;;;4.05;2.80;;;17.60;99.90;;;;;;5026472;28;20026;-45
2021/05/11 14:30:45;;;;;;;7.80;4.22;;;17.60;99.90;;;;;;5026911;28;20070;-45
2021/05/11 14:33:11;;;;;;;6.57;4.03;;;17.60;99.90;;;;;;5028213;28;20025;-46
2021/05/11 14:35:37;;;;;;;8.00;4.15;;;17.60;99.90;;;;;;5028398;28;20049;-46
2021/05/11 14:38:02;;;;;;;6.07;2.95;;;17.60;99.90;;;;;;5027980;28;20021;-46
2021/05/11 14:40:28;;;;;;;6.72;3.85;;;17.60;99.90;;;;;;5028456;28;20029;-46
2021/05/11 14:42:53;;;;;;;6.30;4.13;;;17.60;99.90;;;;;;5028389;28;20052;-45
2021/05/11 14:45:20;;;;;;;10.35;3.55;;;17.60;99.90;;;;;;5028378;28;20029;-46
2021/05/11 14:47:47;;;;;;;5.38;3.50;;;17.60;99.90;;;;;;5027791;28;20018;-46
2021/05/11 14:50:18;;;;;;;11.05;4.38;;;17.60;99.90;;;;;;5027566;28;20029;-46
2021/05/11 14:52:44;;;;;;;8.80;4.47;;;17.70;99.90;;;;;;5028456;28;20112;-46
2021/05/11 14:55:13;;;;;;;6.18;3.78;;;17.60;99.90;;;;;;5028220;28;20407;-46
2021/05/11 14:57:39;;;;;;;5.03;3.28;;;17.50;99.90;;;;;;5027688;28;20026;-46
2021/05/11 15:00:06;;;;;;;10.00;4.00;;;17.60;99.90;;;;;;5028445;28;20045;-46
2021/05/11 15:02:31;;;;;;;7.82;3.95;;;17.50;99.90;;;;;;5027455;28;20021;-45
2021/05/11 15:04:57;;;;;;;6.65;4.20;;;17.50;99.90;;;;;;5026338;28;20471;-48
2021/05/11 15:07:22;;;;;;;8.27;4.07;;;17.40;99.90;;;;;;5026939;28;20382;-45
2021/05/11 15:09:48;;;;;;;8.48;3.55;;;17.40;99.90;;;;;;5027416;28;20428;-45
2021/05/11 15:12:13;;;;;;;6.18;3.60;;;17.50;99.90;;;;;;5026863;28;20364;-46
2021/05/11 15:14:39;;;;;;;8.75;3.53;;;17.40;99.90;;;;;;5029454;28;20037;-47
2021/05/11 15:17:58;;;;;;;7.38;4.07;;;17.40;99.90;;;;;;5029636;28;20029;-46
2021/05/11 15:19:56;;;;;;;9.52;3.67;;;17.40;99.90;;;;;;5028393;28;20041;-45
2021/05/11 15:22:23;;;;;;;7.55;4.22;;;17.50;99.90;;;;;;5029380;28;20112;-46
2021/05/11 15:24:50;;;;;;;7.88;4.97;;;17.50;99.90;;;;;;5024701;28;20029;-46
2021/05/11 15:27:17;;;;;;;8.30;4.28;;;17.40;99.90;;;;;;5029336;28;20064;-46
2021/05/11 15:29:43;;;;;;;6.53;3.88;;;17.40;99.90;;;;;;5031093;28;20017;-46
2021/05/11 15:32:44;;;;;;;7.15;4.20;;;17.40;99.90;;;;;;5030918;28;20041;-46
2021/05/11 15:35:12;;;;;;;8.82;3.92;;;17.40;99.90;;;;;;5028893;28;20084;-47
2021/05/11 15:37:39;;;;;;;4.93;3.55;;;17.40;99.90;;;;;;5029106;28;20029;-46
2021/05/11 15:40:07;;;;;;;7.25;3.92;;;17.30;99.90;;;;;;5030780;28;20049;-45
2021/05/11 15:42:32;;;;;;;5.35;3.08;;;17.30;99.90;;;;;;5030865;28;20017;-45
2021/05/11 15:44:58;;;;;;;5.15;3.05;;;17.30;99.90;;;;;;5029698;28;20391;-45
2021/05/11 15:47:24;;;;;;;5.65;3.10;;;17.30;99.90;;;;;;5030284;28;20061;-46
2021/05/11 15:49:49;;;;;;;4.28;3.17;;;17.20;99.90;;;;;;5029980;28;20021;-46
2021/05/11 15:52:15;;;;;;;8.48;3.50;;;17.20;99.90;;;;;;5029425;28;20078;-46
2021/05/11 15:54:40;;;;;;;6.28;3.38;;;17.20;99.90;;;;;;5030560;28;20028;-45
2021/05/11 15:57:06;;;;;;;7.43;3.55;;;17.20;99.90;;;;;;5030157;28;20072;-44
2021/05/11 15:59:33;;;;;;;8.60;3.97;;;17.30;99.90;;;;;;5029147;28;20038;-45
2021/05/11 16:01:59;;;;;;;9.23;4.22;;;17.40;99.90;;;;;;5030154;28;20565;-45
2021/05/11 16:04:25;;;;;;;9.50;4.10;;;17.40;99.90;;;;;;5030194;28;20150;-46
2021/05/11 16:06:50;;;;;;;9.18;3.83;;;17.40;99.90;;;;;;5030162;28;20097;-46
2021/05/11 16:09:16;;;;;;;4.68;3.40;;;17.40;99.90;;;;;;5030377;28;20021;-45
2021/05/11 16:11:41;;;;;;;6.65;3.20;;;17.40;99.90;;;;;;5030425;28;20064;-45
2021/05/11 16:14:07;;;;;;;10.82;4.03;;;17.30;99.90;;;;;;5030216;28;20091;-46
2021/05/11 16:16:32;;;;;;;9.32;3.75;;;17.40;99.90;;;;;;5028856;28;20143;-45
2021/05/11 16:18:59;;;;;;;11.65;3.38;;;17.30;99.90;;;;;;5026991;28;20029;-46
2021/05/11 16:21:24;;;;;;;8.15;3.20;;;17.30;99.90;;;;;;5030200;28;20017;-45
2021/05/11 16:23:52;;;;;;;5.30;3.13;;;17.30;99.90;;;;;;5029924;28;20423;-48
2021/05/11 16:26:18;;;;;;;5.93;3.70;;;17.20;99.90;;;;;;5029817;28;20033;-45
2021/05/11 16:28:44;;;;;;;9.52;3.50;;;17.20;99.90;;;;;;5029407;28;20018;-46
2021/05/11 16:31:10;;;;;;;6.72;3.58;;;17.30;99.90;;;;;;5029537;28;20025;-47
2021/05/11 16:33:36;;;;;;;8.50;4.05;;;17.30;99.90;;;;;;5029814;28;20013;-46
2021/05/11 16:36:02;;;;;;;8.50;2.83;;;17.30;99.90;;;;;;5029805;28;20378;-45
2021/05/11 16:38:27;;;;;;;3.83;2.95;;;17.20;99.90;;;;;;5029622;28;20036;-45
2021/05/11 16:40:54;;;;;;;7.90;3.63;;;17.30;99.90;;;;;;5029520;28;20064;-44
2021/05/11 16:43:23;;;;;;;6.88;3.10;;;17.20;99.90;;;;;;5027899;28;20032;-46